createdAt,value
2018-06-12T00:01:14.085Z,30.00
2018-06-12T00:03:42.941Z,30.00
2018-06-12T00:06:11.810Z,30.00
2018-06-12T00:08:40.677Z,30.00
2018-06-12T00:11:09.549Z,30.00
2018-06-12T00:13:38.405Z,30.00
2018-06-12T00:16:07.278Z,29.90
2018-06-12T00:18:36.142Z,29.90
2018-06-12T00:21:05.015Z,29.90
2018-06-12T00:23:33.858Z,29.90
2018-06-12T00:26:02.714Z,29.90
2018-06-12T00:28:31.558Z,29.90
2018-06-12T00:31:00.482Z,29.90
2018-06-12T00:33:29.317Z,29.90
2018-06-12T00:35:58.185Z,29.90
2018-06-12T00:38:27.898Z,29.90
2018-06-12T00:40:56.754Z,29.90
2018-06-12T00:43:25.594Z,29.90
2018-06-12T00:45:54.698Z,29.90
2018-06-12T00:48:23.542Z,29.90
2018-06-12T00:50:52.412Z,29.90
2018-06-12T00:53:21.262Z,29.90
2018-06-12T00:55:50.117Z,29.90
2018-06-12T00:58:18.958Z,29.90
2018-06-12T01:00:47.818Z,29.90
2018-06-12T01:03:16.670Z,29.80
2018-06-12T01:05:45.534Z,29.80
2018-06-12T01:08:14.394Z,29.80
2018-06-12T01:10:43.258Z,29.80
2018-06-12T01:13:12.094Z,29.80
2018-06-12T01:15:40.954Z,29.80
2018-06-12T01:18:09.791Z,29.80
2018-06-12T01:20:38.649Z,29.80
2018-06-12T01:23:07.490Z,29.80
2018-06-12T01:25:36.358Z,29.80
2018-06-12T01:28:05.202Z,29.80
2018-06-12T01:30:34.069Z,29.80
2018-06-12T01:33:02.917Z,29.80
2018-06-12T01:35:31.779Z,29.80
2018-06-12T01:38:00.618Z,29.80
2018-06-12T01:40:29.546Z,29.80
2018-06-12T01:42:58.386Z,29.80
2018-06-12T01:45:27.746Z,29.70
2018-06-12T01:50:25.194Z,29.70
2018-06-12T01:52:54.033Z,29.70
2018-06-12T01:55:22.874Z,29.70
2018-06-12T01:57:51.746Z,29.70
2018-06-12T02:00:20.586Z,29.70
2018-06-12T02:02:49.447Z,29.70
2018-06-12T02:05:18.290Z,29.70
2018-06-12T02:07:47.165Z,29.70
2018-06-12T02:10:16.014Z,29.70
2018-06-12T02:12:44.873Z,29.70
2018-06-12T02:15:13.714Z,29.70
2018-06-12T02:17:42.574Z,29.70
2018-06-12T02:20:11.419Z,29.70
2018-06-12T02:22:40.282Z,29.70
2018-06-12T02:25:09.126Z,29.70
2018-06-12T02:27:37.990Z,29.70
2018-06-12T02:30:06.826Z,29.70
2018-06-12T02:32:35.700Z,29.60
2018-06-12T02:35:04.590Z,29.60
2018-06-12T02:37:33.450Z,29.60
2018-06-12T02:40:02.298Z,29.60
2018-06-12T02:42:31.150Z,29.60
2018-06-12T02:44:59.995Z,29.60
2018-06-12T02:47:34.567Z,29.60
2018-06-12T02:50:03.427Z,29.60
2018-06-12T02:52:32.287Z,29.60
2018-06-12T02:55:01.121Z,29.60
2018-06-12T02:57:30.474Z,29.60
2018-06-12T02:59:59.314Z,29.60
2018-06-12T03:02:28.678Z,29.60
2018-06-12T03:04:57.519Z,29.60
2018-06-12T03:07:26.410Z,29.60
2018-06-12T03:09:55.950Z,29.60
2018-06-12T03:14:53.314Z,29.50
2018-06-12T03:17:28.877Z,29.50
2018-06-12T03:19:57.721Z,29.50
2018-06-12T03:22:26.585Z,29.50
2018-06-12T03:24:56.035Z,29.50
2018-06-12T03:27:24.894Z,29.50
2018-06-12T03:29:53.734Z,29.50
2018-06-12T03:34:51.126Z,29.50
2018-06-12T03:37:19.994Z,29.50
2018-06-12T03:39:48.838Z,29.50
2018-06-12T03:42:17.694Z,29.50
2018-06-12T03:44:46.543Z,29.50
2018-06-12T03:47:15.410Z,29.50
2018-06-12T03:49:44.251Z,29.50
2018-06-12T03:52:13.190Z,29.50
2018-06-12T03:54:42.026Z,29.50
2018-06-12T03:57:10.891Z,29.50
2018-06-12T03:59:39.750Z,29.50
2018-06-12T04:02:08.625Z,29.50
2018-06-12T04:04:37.465Z,29.40
2018-06-12T04:07:06.303Z,29.40
2018-06-12T04:09:35.186Z,29.40
2018-06-12T04:12:04.033Z,29.40
2018-06-12T04:14:32.894Z,29.40
2018-06-12T04:17:01.711Z,29.40
2018-06-12T04:19:31.234Z,29.40
2018-06-12T04:22:00.080Z,29.40
2018-06-12T04:24:29.442Z,29.40
2018-06-12T04:26:58.287Z,29.40
2018-06-12T04:29:27.149Z,29.40
2018-06-12T04:31:55.993Z,29.40
2018-06-12T04:34:24.854Z,29.40
2018-06-12T04:36:53.699Z,29.40
2018-06-12T04:39:22.550Z,29.40
2018-06-12T04:41:51.398Z,29.40
2018-06-12T04:44:20.260Z,29.40
2018-06-12T04:46:49.102Z,29.40
2018-06-12T04:49:17.962Z,29.40
2018-06-12T04:51:46.811Z,29.40
2018-06-12T04:56:44.183Z,29.40
2018-06-12T05:01:41.658Z,29.30
2018-06-12T05:04:10.526Z,29.30
2018-06-12T05:06:39.378Z,29.30
2018-06-12T05:09:08.451Z,29.40
2018-06-12T05:11:37.298Z,29.30
2018-06-12T05:14:06.163Z,29.30
2018-06-12T05:16:34.994Z,29.30
2018-06-12T05:19:03.860Z,29.30
2018-06-12T05:21:32.720Z,29.30
2018-06-12T05:24:02.631Z,29.30
2018-06-12T05:26:31.865Z,29.30
2018-06-12T05:29:00.737Z,29.30
2018-06-12T05:31:30.098Z,29.30
2018-06-12T05:33:58.957Z,29.30
2018-06-12T05:36:27.809Z,29.30
2018-06-12T05:38:56.665Z,29.30
2018-06-12T05:41:25.502Z,29.30
2018-06-12T05:43:54.367Z,29.30
2018-06-12T05:46:23.201Z,29.30
2018-06-12T05:48:52.074Z,29.30
2018-06-12T05:51:20.914Z,29.30
2018-06-12T05:53:49.782Z,29.30
2018-06-12T05:58:47.166Z,29.30
2018-06-12T06:03:44.618Z,29.30
2018-06-12T06:06:13.425Z,29.30
2018-06-12T06:08:42.294Z,29.30
2018-06-12T06:11:11.160Z,29.10
2018-06-12T06:13:40.011Z,28.80
2018-06-12T06:16:08.882Z,28.50
2018-06-12T06:21:06.305Z,28.40
2018-06-12T06:23:35.146Z,28.30
2018-06-12T06:26:04.014Z,28.10
2018-06-12T06:28:32.862Z,27.80
2018-06-12T06:31:01.706Z,27.60
2018-06-12T06:33:31.393Z,27.80
2018-06-12T06:36:00.270Z,27.90
2018-06-12T06:38:29.114Z,27.90
2018-06-12T06:40:58.191Z,27.90
